Terminal Aerodrome Forecast
Issued by NWS

Home | Current Version | Previous Version | Text Only | Print | Product List | Glossary On
Versions: 1 2 3 4 5 6 7 8 9 10 11 12 13 14
000
FTUS45 KTFX 070536
TAFLWT
TAF
KLWT 070536Z 0706/0806 27011KT P6SM SCT100
     FM071600 27008KT P6SM SCT180
     FM080300 24006KT P6SM BKN150=

USA.gov is the U.S. government's official web portal to all federal, state and local government web resources and services.